Time,TemperatureF,DewpointF,PressureIn,WindDirection,WindDirectionDegrees,WindSpeedMPH,WindSpeedGustMPH,Humidity,HourlyPrecipIn,Conditions,Clouds,dailyrainin,SoftwareType,DateUTC
2013-07-17 00:00:00,74.4,71.6,30.09,South,173,0.0,0.0,91,0.00,,---,0.00,VWS V14.01,2013-07-17 05:00:00,
2013-07-17 00:05:00,74.2,71.7,30.09,South,174,0.0,0.0,92,0.00,,---,0.00,VWS V14.01,2013-07-17 05:05:00,
2013-07-17 00:10:00,74.1,71.6,30.09,South,173,0.0,0.0,92,0.00,,---,0.00,VWS V14.01,2013-07-17 05:10:00,
2013-07-17 00:15:00,73.9,71.4,30.09,South,174,0.0,0.0,92,0.00,,---,0.00,VWS V14.01,2013-07-17 05:15:00,
2013-07-17 00:20:00,73.8,71.7,30.09,South,173,0.0,0.0,93,0.00,,---,0.00,VWS V14.01,2013-07-17 05:20:00,
2013-07-17 00:25:00,73.7,71.6,30.09,South,173,0.0,0.0,93,0.00,,---,0.00,VWS V14.01,2013-07-17 05:25:00,
2013-07-17 00:30:00,73.6,71.5,30.09,South,173,0.0,0.0,93,0.00,,---,0.00,VWS V14.01,2013-07-17 05:30:00,
2013-07-17 00:35:00,73.5,71.4,30.09,South,173,0.0,0.0,93,0.00,,---,0.00,VWS V14.01,2013-07-17 05:35:00,
2013-07-17 00:40:00,73.3,71.2,30.09,South,174,0.0,0.0,93,0.00,,---,0.00,VWS V14.01,2013-07-17 05:40:00,
2013-07-17 00:45:00,73.1,71.3,30.09,South,173,0.0,0.0,94,0.00,,---,0.00,VWS V14.01,2013-07-17 05:45:00,
2013-07-17 00:50:00,73.1,71.3,30.09,South,173,0.0,0.0,94,0.00,,---,0.00,VWS V14.01,2013-07-17 05:50:00,
2013-07-17 00:55:00,73.0,71.2,30.09,South,173,0.0,0.0,94,0.00,,---,0.00,VWS V14.01,2013-07-17 05:55:00,
2013-07-17 01:00:00,72.8,71.0,30.09,South,174,0.0,0.0,94,0.00,,---,0.00,VWS V14.01,2013-07-17 06:00:00,
2013-07-17 01:05:00,72.7,70.9,30.09,South,173,0.0,0.0,94,0.00,,---,0.00,VWS V14.01,2013-07-17 06:05:00,
2013-07-17 01:11:00,72.5,71.0,30.09,South,173,0.0,0.0,95,0.00,,---,0.00,VWS V14.01,2013-07-17 06:11:00,
2013-07-17 01:16:00,72.4,70.9,30.09,South,174,0.0,0.0,95,0.00,,---,0.00,VWS V14.01,2013-07-17 06:16:00,
2013-07-17 01:21:00,72.3,70.8,30.09,South,173,0.0,0.0,95,0.00,,---,0.00,VWS V14.01,2013-07-17 06:21:00,
2013-07-17 01:26:00,72.3,70.8,30.09,South,174,0.0,0.0,95,0.00,,---,0.00,VWS V14.01,2013-07-17 06:26:00,
2013-07-17 01:31:00,72.1,70.6,30.08,South,173,0.0,0.0,95,0.00,,---,0.00,VWS V14.01,2013-07-17 06:31:00,
2013-07-17 01:36:00,72.0,70.8,30.08,South,173,0.0,0.0,96,0.00,,---,0.00,VWS V14.01,2013-07-17 06:36:00,
2013-07-17 01:41:00,71.9,70.7,30.08,South,173,0.0,0.0,96,0.00,,---,0.00,VWS V14.01,2013-07-17 06:41:00,
2013-07-17 01:47:00,71.8,70.6,30.08,South,174,0.0,0.0,96,0.00,,---,0.00,VWS V14.01,2013-07-17 06:47:00,
2013-07-17 01:52:00,71.8,70.6,30.08,South,173,0.0,0.0,96,0.00,,---,0.00,VWS V14.01,2013-07-17 06:52:00,
2013-07-17 01:57:00,71.8,70.6,30.08,South,173,0.0,0.0,96,0.00,,---,0.00,VWS V14.01,2013-07-17 06:57:00,
2013-07-17 02:02:00,71.8,70.6,30.08,South,173,0.0,0.0,96,0.00,,---,0.00,VWS V14.01,2013-07-17 07:02:00,
2013-07-17 02:07:00,71.8,70.6,30.08,South,174,0.0,0.0,96,0.00,,---,0.00,VWS V14.01,2013-07-17 07:07:00,
2013-07-17 02:12:00,71.7,70.5,30.08,South,174,0.0,0.0,96,0.00,,---,0.00,VWS V14.01,2013-07-17 07:12:00,
2013-07-17 02:17:00,71.7,70.5,30.08,South,174,0.0,0.0,96,0.00,,---,0.00,VWS V14.01,2013-07-17 07:17:00,
2013-07-17 02:18:00,71.7,70.5,30.08,South,173,0.0,0.0,96,0.00,,---,0.00,VWS V14.01,2013-07-17 07:18:00,
2013-07-17 02:23:00,71.6,70.4,30.08,South,173,0.0,0.0,96,0.00,,---,0.00,VWS V14.01,2013-07-17 07:23:00,
2013-07-17 02:28:00,71.6,70.4,30.08,South,173,0.0,0.0,96,0.00,,---,0.00,VWS V14.01,2013-07-17 07:28:00,
2013-07-17 02:33:00,71.6,70.4,30.08,South,173,0.0,0.0,96,0.00,,---,0.00,VWS V14.01,2013-07-17 07:33:00,
2013-07-17 02:38:00,71.5,70.3,30.08,South,174,0.0,0.0,96,0.00,,---,0.00,VWS V14.01,2013-07-17 07:38:00,
2013-07-17 02:43:00,71.5,70.3,30.08,South,173,0.0,0.0,96,0.00,,---,0.00,VWS V14.01,2013-07-17 07:43:00,
2013-07-17 02:48:00,71.4,70.5,30.08,South,173,0.0,0.0,97,0.00,,---,0.00,VWS V14.01,2013-07-17 07:48:00,
2013-07-17 02:53:00,71.5,70.6,30.08,South,173,0.0,0.0,97,0.00,,---,0.00,VWS V14.01,2013-07-17 07:53:00,
2013-07-17 02:58:00,71.5,70.3,30.08,South,173,0.0,0.0,96,0.00,,---,0.00,VWS V14.01,2013-07-17 07:58:00,
2013-07-17 03:03:00,71.4,70.2,30.08,South,173,0.0,0.0,96,0.00,,---,0.00,VWS V14.01,2013-07-17 08:03:00,
2013-07-17 03:08:00,71.3,70.1,30.08,South,173,0.0,0.0,96,0.00,,---,0.00,VWS V14.01,2013-07-17 08:08:00,
2013-07-17 03:13:00,71.1,69.9,30.08,South,173,0.0,0.0,96,0.00,,---,0.00,VWS V14.01,2013-07-17 08:13:00,
2013-07-17 03:18:00,71.0,69.8,30.08,South,173,0.0,0.0,96,0.00,,---,0.00,VWS V14.01,2013-07-17 08:18:00,
2013-07-17 03:23:00,70.9,70.0,30.08,South,173,0.0,0.0,97,0.00,,---,0.00,VWS V14.01,2013-07-17 08:23:00,
2013-07-17 03:29:00,70.8,69.9,30.08,South,173,0.0,0.0,97,0.00,,---,0.00,VWS V14.01,2013-07-17 08:29:00,
2013-07-17 03:34:00,70.8,69.9,30.08,South,173,0.0,0.0,97,0.00,,---,0.00,VWS V14.01,2013-07-17 08:34:00,
2013-07-17 03:39:00,70.8,69.9,30.08,South,173,0.0,0.0,97,0.00,,---,0.00,VWS V14.01,2013-07-17 08:39:00,
2013-07-17 03:44:00,70.8,69.9,30.08,South,173,0.0,0.0,97,0.00,,---,0.00,VWS V14.01,2013-07-17 08:44:00,
2013-07-17 03:49:00,70.9,70.0,30.09,South,173,0.0,0.0,97,0.00,,---,0.00,VWS V14.01,2013-07-17 08:49:00,
2013-07-17 03:54:00,70.7,69.8,30.09,South,173,0.0,0.0,97,0.00,,---,0.00,VWS V14.01,2013-07-17 08:54:00,
2013-07-17 03:59:00,70.8,70.2,30.09,South,173,0.0,0.0,98,0.00,,---,0.00,VWS V14.01,2013-07-17 08:59:00,
2013-07-17 04:04:00,70.8,70.2,30.09,South,173,0.0,0.0,98,0.00,,---,0.00,VWS V14.01,2013-07-17 09:04:00,
2013-07-17 04:09:00,70.7,70.1,30.09,South,173,0.0,0.0,98,0.00,,---,0.00,VWS V14.01,2013-07-17 09:09:00,
2013-07-17 04:14:00,70.7,70.1,30.09,South,173,0.0,0.0,98,0.00,,---,0.00,VWS V14.01,2013-07-17 09:14:00,
2013-07-17 04:19:00,70.6,70.0,30.09,South,173,0.0,0.0,98,0.00,,---,0.00,VWS V14.01,2013-07-17 09:19:00,
2013-07-17 04:24:00,70.5,69.9,30.09,South,173,0.0,0.0,98,0.00,,---,0.00,VWS V14.01,2013-07-17 09:24:00,
2013-07-17 04:29:00,70.3,69.7,30.09,South,173,0.0,0.0,98,0.00,,---,0.00,VWS V14.01,2013-07-17 09:29:00,
2013-07-17 04:34:00,70.3,69.7,30.09,South,173,0.0,0.0,98,0.00,,---,0.00,VWS V14.01,2013-07-17 09:34:00,
2013-07-17 04:39:00,70.4,69.8,30.09,South,174,0.0,0.0,98,0.00,,---,0.00,VWS V14.01,2013-07-17 09:39:00,
2013-07-17 04:44:00,70.3,69.7,30.09,South,173,0.0,0.0,98,0.00,,---,0.00,VWS V14.01,2013-07-17 09:44:00,
2013-07-17 04:49:00,70.3,69.7,30.09,South,174,0.0,0.0,98,0.00,,---,0.00,VWS V14.01,2013-07-17 09:49:00,
2013-07-17 04:54:00,70.2,69.6,30.09,South,173,0.0,0.0,98,0.00,,---,0.00,VWS V14.01,2013-07-17 09:54:00,
2013-07-17 04:59:00,70.2,69.6,30.09,South,173,0.0,0.0,98,0.00,,---,0.00,VWS V14.01,2013-07-17 09:59:00,
2013-07-17 05:04:00,70.1,69.5,30.09,South,173,0.0,0.0,98,0.00,,---,0.00,VWS V14.01,2013-07-17 10:04:00,
2013-07-17 05:10:00,70.0,69.4,30.09,South,173,0.0,0.0,98,0.00,,---,0.00,VWS V14.01,2013-07-17 10:10:00,
2013-07-17 05:15:00,70.0,69.4,30.09,South,174,0.0,0.0,98,0.00,,---,0.00,VWS V14.01,2013-07-17 10:15:00,
2013-07-17 05:20:00,70.1,69.5,30.09,South,173,0.0,0.0,98,0.00,,---,0.00,VWS V14.01,2013-07-17 10:20:00,
2013-07-17 05:25:00,69.9,69.3,30.09,South,173,0.0,0.0,98,0.00,,---,0.00,VWS V14.01,2013-07-17 10:25:00,
2013-07-17 05:30:00,69.8,69.2,30.09,South,173,0.0,0.0,98,0.00,,---,0.00,VWS V14.01,2013-07-17 10:30:00,
2013-07-17 05:35:00,69.8,69.2,30.09,South,173,0.0,0.0,98,0.00,,---,0.00,VWS V14.01,2013-07-17 10:35:00,
2013-07-17 05:40:00,69.7,69.1,30.09,South,174,0.0,0.0,98,0.00,,---,0.00,VWS V14.01,2013-07-17 10:40:00,
2013-07-17 05:45:00,69.4,68.8,30.10,South,173,0.0,0.0,98,0.00,,---,0.00,VWS V14.01,2013-07-17 10:45:00,
2013-07-17 05:50:00,69.5,68.9,30.10,South,174,0.0,0.0,98,0.00,,---,0.00,VWS V14.01,2013-07-17 10:50:00,
2013-07-17 05:55:00,69.8,69.5,30.10,South,173,0.0,0.0,99,0.00,,---,0.00,VWS V14.01,2013-07-17 10:55:00,
2013-07-17 06:00:00,69.9,69.6,30.10,South,174,0.0,0.0,99,0.00,,---,0.00,VWS V14.01,2013-07-17 11:00:00,
2013-07-17 06:05:00,69.9,69.6,30.10,South,173,0.0,0.0,99,0.00,,---,0.00,VWS V14.01,2013-07-17 11:05:00,
2013-07-17 06:10:00,70.0,69.7,30.10,South,174,0.0,0.0,99,0.00,,---,0.00,VWS V14.01,2013-07-17 11:10:00,
2013-07-17 06:15:00,70.1,69.8,30.10,South,173,0.0,0.0,99,0.00,,---,0.00,VWS V14.01,2013-07-17 11:15:00,
2013-07-17 06:20:00,70.1,69.8,30.10,South,173,0.0,0.0,99,0.00,,---,0.00,VWS V14.01,2013-07-17 11:20:00,
2013-07-17 06:25:00,70.3,70.0,30.10,South,173,0.0,0.0,99,0.00,,---,0.00,VWS V14.01,2013-07-17 11:25:00,
2013-07-17 06:30:00,70.4,70.1,30.10,South,173,0.0,0.0,99,0.00,,---,0.00,VWS V14.01,2013-07-17 11:30:00,
2013-07-17 06:35:00,70.5,70.2,30.10,South,173,0.0,0.0,99,0.00,,---,0.00,VWS V14.01,2013-07-17 11:35:00,
2013-07-17 06:40:00,70.8,70.5,30.10,West,264,0.0,0.0,99,0.00,,---,0.00,VWS V14.01,2013-07-17 11:40:00,
2013-07-17 06:45:00,71.1,70.8,30.11,West,266,0.0,1.0,99,0.00,,---,0.00,VWS V14.01,2013-07-17 11:45:00,
2013-07-17 06:51:00,71.2,70.9,30.11,West,266,0.0,1.0,99,0.00,,---,0.00,VWS V14.01,2013-07-17 11:51:00,
2013-07-17 06:56:00,71.2,70.9,30.11,West,266,0.0,1.0,99,0.00,,---,0.00,VWS V14.01,2013-07-17 11:56:00,
2013-07-17 07:01:00,71.6,71.3,30.11,West,267,0.0,0.0,99,0.00,,---,0.00,VWS V14.01,2013-07-17 12:01:00,
2013-07-17 07:06:00,72.2,71.9,30.11,West,266,0.0,0.0,99,0.00,,---,0.00,VWS V14.01,2013-07-17 12:06:00,
2013-07-17 07:11:00,72.8,72.2,30.11,West,268,0.0,0.0,98,0.00,,---,0.00,VWS V14.01,2013-07-17 12:11:00,
2013-07-17 07:16:00,73.3,72.1,30.11,West,275,0.0,0.0,96,0.00,,---,0.00,VWS V14.01,2013-07-17 12:16:00,
2013-07-17 07:21:00,73.9,72.4,30.11,West,269,0.0,2.0,95,0.00,,---,0.00,VWS V14.01,2013-07-17 12:21:00,
2013-07-17 07:26:00,74.5,72.7,30.11,West,259,0.0,2.0,94,0.00,,---,0.00,VWS V14.01,2013-07-17 12:26:00,
2013-07-17 07:31:00,74.8,72.3,30.11,West,276,0.0,0.0,92,0.00,,---,0.00,VWS V14.01,2013-07-17 12:31:00,
2013-07-17 07:36:00,75.1,72.6,30.11,WNW,297,1.0,3.0,92,0.00,,---,0.00,VWS V14.01,2013-07-17 12:36:00,
2013-07-17 07:41:00,75.5,72.4,30.11,West,269,1.0,5.0,90,0.00,,---,0.00,VWS V14.01,2013-07-17 12:41:00,
2013-07-17 07:46:00,75.8,72.7,30.11,WSW,254,0.0,5.0,90,0.00,,---,0.00,VWS V14.01,2013-07-17 12:46:00,
2013-07-17 07:51:00,76.0,72.5,30.11,West,264,1.0,5.0,89,0.00,,---,0.00,VWS V14.01,2013-07-17 12:51:00,
2013-07-17 07:56:00,76.3,72.8,30.11,West,267,1.0,5.0,89,0.00,,---,0.00,VWS V14.01,2013-07-17 12:56:00,
2013-07-17 08:01:00,76.6,72.8,30.11,West,277,0.0,0.0,88,0.00,,---,0.00,VWS V14.01,2013-07-17 13:01:00,
2013-07-17 08:06:00,76.9,72.7,30.11,West,272,0.0,0.0,87,0.00,,---,0.00,VWS V14.01,2013-07-17 13:06:00,
2013-07-17 08:11:00,77.4,72.9,30.11,WNW,295,4.0,6.0,86,0.00,,---,0.00,VWS V14.01,2013-07-17 13:11:00,
2013-07-17 08:16:00,77.9,73.0,30.11,WNW,284,1.0,6.0,85,0.00,,---,0.00,VWS V14.01,2013-07-17 13:16:00,
2013-07-17 08:21:00,78.3,72.7,30.11,West,260,1.0,6.0,83,0.00,,---,0.00,VWS V14.01,2013-07-17 13:21:00,
2013-07-17 08:26:00,78.6,72.3,30.11,West,281,1.0,6.0,81,0.00,,---,0.00,VWS V14.01,2013-07-17 13:26:00,
2013-07-17 08:32:00,78.9,72.2,30.11,West,273,1.0,3.0,80,0.00,,---,0.00,VWS V14.01,2013-07-17 13:32:00,
2013-07-17 08:37:00,79.1,71.7,30.11,West,273,0.0,5.0,78,0.00,,---,0.00,VWS V14.01,2013-07-17 13:37:00,
2013-07-17 08:42:00,79.3,71.5,30.11,West,271,1.0,5.0,77,0.00,,---,0.00,VWS V14.01,2013-07-17 13:42:00,
2013-07-17 08:47:00,79.4,71.2,30.11,West,259,1.0,5.0,76,0.00,,---,0.00,VWS V14.01,2013-07-17 13:47:00,
2013-07-17 08:52:00,79.6,71.4,30.11,West,259,0.0,5.0,76,0.00,,---,0.00,VWS V14.01,2013-07-17 13:52:00,
2013-07-17 08:57:00,79.8,70.8,30.11,West,269,0.0,6.0,74,0.00,,---,0.00,VWS V14.01,2013-07-17 13:57:00,
2013-07-17 09:02:00,79.9,71.3,30.11,WSW,237,3.0,5.0,75,0.00,,---,0.00,VWS V14.01,2013-07-17 14:02:00,
2013-07-17 09:07:00,80.1,70.7,30.11,West,269,2.0,5.0,73,0.00,,---,0.00,VWS V14.01,2013-07-17 14:07:00,
2013-07-17 09:12:00,80.2,71.2,30.11,WNW,285,0.0,5.0,74,0.00,,---,0.00,VWS V14.01,2013-07-17 14:12:00,
2013-07-17 09:17:00,80.3,71.3,30.11,West,275,1.0,5.0,74,0.00,,---,0.00,VWS V14.01,2013-07-17 14:17:00,
2013-07-17 09:22:00,80.6,71.2,30.11,West,269,1.0,5.0,73,0.00,,---,0.00,VWS V14.01,2013-07-17 14:22:00,
2013-07-17 09:27:00,80.5,70.7,30.11,West,261,2.0,8.0,72,0.00,,---,0.00,VWS V14.01,2013-07-17 14:27:00,
2013-07-17 09:32:00,80.3,70.9,30.11,WSW,250,1.0,5.0,73,0.00,,---,0.00,VWS V14.01,2013-07-17 14:32:00,
2013-07-17 09:37:00,80.1,70.3,30.11,West,261,3.0,6.0,72,0.00,,---,0.00,VWS V14.01,2013-07-17 14:37:00,
2013-07-17 09:42:00,80.5,70.7,30.11,West,275,2.0,6.0,72,0.00,,---,0.00,VWS V14.01,2013-07-17 14:42:00,
2013-07-17 09:47:00,81.0,70.7,30.11,WNW,293,3.0,6.0,71,0.00,,---,0.00,VWS V14.01,2013-07-17 14:47:00,
2013-07-17 09:52:00,81.5,71.2,30.11,West,266,3.0,6.0,71,0.00,,---,0.00,VWS V14.01,2013-07-17 14:52:00,
2013-07-17 09:57:00,81.8,71.1,30.11,West,263,2.0,7.0,70,0.00,,---,0.00,VWS V14.01,2013-07-17 14:57:00,
2013-07-17 10:03:00,81.8,71.5,30.11,WNW,288,2.0,3.0,71,0.00,,---,0.00,VWS V14.01,2013-07-17 15:03:00,
2013-07-17 10:08:00,82.1,71.3,30.11,West,261,2.0,4.0,70,0.00,,---,0.00,VWS V14.01,2013-07-17 15:08:00,
2013-07-17 10:13:00,82.3,70.7,30.11,NW,304,4.0,9.0,68,0.00,,---,0.00,VWS V14.01,2013-07-17 15:13:00,
2013-07-17 10:18:00,82.6,71.8,30.11,WNW,294,3.0,9.0,70,0.00,,---,0.00,VWS V14.01,2013-07-17 15:18:00,
2013-07-17 10:23:00,83.0,70.9,30.11,NW,304,2.0,9.0,67,0.00,,---,0.00,VWS V14.01,2013-07-17 15:23:00,
2013-07-17 10:28:00,83.1,71.4,30.11,West,269,2.0,9.0,68,0.00,,---,0.00,VWS V14.01,2013-07-17 15:28:00,
2013-07-17 10:33:00,83.2,70.7,30.11,WNW,291,9.0,9.0,66,0.00,,---,0.00,VWS V14.01,2013-07-17 15:33:00,
2013-07-17 10:38:00,83.2,70.7,30.11,NW,304,2.0,9.0,66,0.00,,---,0.00,VWS V14.01,2013-07-17 15:38:00,
2013-07-17 10:43:00,83.5,70.9,30.11,WSW,237,2.0,9.0,66,0.00,,---,0.00,VWS V14.01,2013-07-17 15:43:00,
2013-07-17 10:48:00,83.4,70.9,30.10,West,261,2.0,9.0,66,0.00,,---,0.00,VWS V14.01,2013-07-17 15:48:00,
2013-07-17 10:53:00,83.7,71.1,30.10,WSW,254,2.0,9.0,66,0.00,,---,0.00,VWS V14.01,2013-07-17 15:53:00,
2013-07-17 10:58:00,84.2,70.2,30.10,WNW,286,2.0,9.0,63,0.00,,---,0.00,VWS V14.01,2013-07-17 15:58:00,
2013-07-17 11:03:00,84.4,70.4,30.10,WSW,252,2.0,5.0,63,0.00,,---,0.00,VWS V14.01,2013-07-17 16:03:00,
2013-07-17 11:08:00,84.7,70.7,30.10,West,267,3.0,6.0,63,0.00,,---,0.00,VWS V14.01,2013-07-17 16:08:00,
2013-07-17 11:13:00,85.2,70.7,30.10,West,277,4.0,6.0,62,0.00,,---,0.00,VWS V14.01,2013-07-17 16:13:00,
2013-07-17 11:18:00,84.5,68.6,30.10,West,267,3.0,9.0,59,0.00,,---,0.00,VWS V14.01,2013-07-17 16:18:00,
2013-07-17 11:23:00,84.4,70.0,30.10,West,279,5.0,9.0,62,0.00,,---,0.00,VWS V14.01,2013-07-17 16:23:00,
2013-07-17 11:28:00,84.4,70.0,30.10,WSW,251,1.0,9.0,62,0.00,,---,0.00,VWS V14.01,2013-07-17 16:28:00,
2013-07-17 11:33:00,84.1,70.2,30.10,SW,214,2.0,3.0,63,0.00,,---,0.00,VWS V14.01,2013-07-17 16:33:00,
2013-07-17 11:38:00,84.2,69.3,30.10,West,272,2.0,7.0,61,0.00,,---,0.00,VWS V14.01,2013-07-17 16:38:00,
2013-07-17 11:44:00,84.2,69.8,30.10,WSW,252,1.0,7.0,62,0.00,,---,0.00,VWS V14.01,2013-07-17 16:44:00,
2013-07-17 11:49:00,84.7,70.2,30.10,West,277,2.0,7.0,62,0.00,,---,0.00,VWS V14.01,2013-07-17 16:49:00,
2013-07-17 11:54:00,85.0,71.0,30.10,West,274,2.0,7.0,63,0.00,,---,0.00,VWS V14.01,2013-07-17 16:54:00,
2013-07-17 11:59:00,85.4,70.4,30.10,West,280,4.0,7.0,61,0.00,,---,0.00,VWS V14.01,2013-07-17 16:59:00,
2013-07-17 12:04:00,85.5,71.0,30.09,WSW,255,4.0,4.0,62,0.00,,---,0.00,VWS V14.01,2013-07-17 17:04:00,
2013-07-17 12:09:00,85.6,70.1,30.09,WNW,283,4.0,4.0,60,0.00,,---,0.00,VWS V14.01,2013-07-17 17:09:00,
2013-07-17 12:14:00,84.8,69.9,30.09,West,272,2.0,5.0,61,0.00,,---,0.00,VWS V14.01,2013-07-17 17:14:00,
2013-07-17 12:19:00,84.6,69.7,30.09,NNE,15,2.0,7.0,61,0.00,,---,0.00,VWS V14.01,2013-07-17 17:19:00,
2013-07-17 12:24:00,85.1,70.6,30.09,WNW,296,4.0,7.0,62,0.00,,---,0.00,VWS V14.01,2013-07-17 17:24:00,
2013-07-17 12:29:00,84.6,69.2,30.09,West,281,3.0,8.0,60,0.00,,---,0.00,VWS V14.01,2013-07-17 17:29:00,
2013-07-17 12:34:00,84.4,70.0,30.09,WNW,290,4.0,4.0,62,0.00,,---,0.00,VWS V14.01,2013-07-17 17:34:00,
2013-07-17 12:39:00,85.3,70.3,30.09,WNW,291,1.0,4.0,61,0.00,,---,0.00,VWS V14.01,2013-07-17 17:39:00,
2013-07-17 12:44:00,86.6,70.1,30.09,SSE,163,2.0,7.0,58,0.00,,---,0.00,VWS V14.01,2013-07-17 17:44:00,
2013-07-17 12:49:00,87.1,71.0,30.09,WNW,299,4.0,7.0,59,0.00,,---,0.00,VWS V14.01,2013-07-17 17:49:00,
2013-07-17 12:54:00,87.3,70.2,30.09,WSW,243,2.0,10.0,57,0.00,,---,0.00,VWS V14.01,2013-07-17 17:54:00,
2013-07-17 12:59:00,87.0,68.9,30.09,West,263,4.0,10.0,55,0.00,,---,0.00,VWS V14.01,2013-07-17 17:59:00,
2013-07-17 13:04:00,87.0,68.9,30.09,WSW,246,3.0,7.0,55,0.00,,---,0.00,VWS V14.01,2013-07-17 18:04:00,
2013-07-17 13:09:00,87.4,70.3,30.09,WSW,256,3.0,7.0,57,0.00,,---,0.00,VWS V14.01,2013-07-17 18:09:00,
2013-07-17 13:14:00,88.3,69.6,30.08,WNW,284,3.0,8.0,54,0.00,,---,0.00,VWS V14.01,2013-07-17 18:14:00,
2013-07-17 13:19:00,88.3,70.6,30.08,WNW,287,2.0,8.0,56,0.00,,---,0.00,VWS V14.01,2013-07-17 18:19:00,
2013-07-17 13:25:00,88.5,70.3,30.08,West,259,2.0,8.0,55,0.00,,---,0.00,VWS V14.01,2013-07-17 18:25:00,
2013-07-17 13:30:00,88.6,69.8,30.08,SW,221,4.0,8.0,54,0.00,,---,0.00,VWS V14.01,2013-07-17 18:30:00,
2013-07-17 13:35:00,88.1,69.4,30.08,NW,313,0.0,8.0,54,0.00,,---,0.00,VWS V14.01,2013-07-17 18:35:00,
2013-07-17 13:40:00,88.4,69.7,30.08,West,268,3.0,8.0,54,0.00,,---,0.00,VWS V14.01,2013-07-17 18:40:00,
2013-07-17 13:45:00,88.8,70.0,30.08,WSW,250,2.0,8.0,54,0.00,,---,0.00,VWS V14.01,2013-07-17 18:45:00,
2013-07-17 13:50:00,88.1,69.4,30.08,West,271,2.0,8.0,54,0.00,,---,0.00,VWS V14.01,2013-07-17 18:50:00,
2013-07-17 13:55:00,87.3,69.7,30.08,WNW,287,1.0,8.0,56,0.00,,---,0.00,VWS V14.01,2013-07-17 18:55:00,
2013-07-17 14:00:00,87.1,70.0,30.07,SW,233,1.0,8.0,57,0.00,,---,0.00,VWS V14.01,2013-07-17 19:00:00,
2013-07-17 14:05:00,87.9,70.3,30.07,SW,219,2.0,5.0,56,0.00,,---,0.00,VWS V14.01,2013-07-17 19:05:00,
2013-07-17 14:10:00,87.8,70.7,30.07,SW,230,3.0,5.0,57,0.00,,---,0.00,VWS V14.01,2013-07-17 19:10:00,
2013-07-17 14:15:00,88.0,69.8,30.06,WNW,288,2.0,7.0,55,0.00,,---,0.00,VWS V14.01,2013-07-17 19:15:00,
2013-07-17 14:20:00,88.3,70.6,30.06,SW,215,3.0,8.0,56,0.00,,---,0.00,VWS V14.01,2013-07-17 19:20:00,
2013-07-17 14:25:00,88.7,69.4,30.06,SW,223,4.0,8.0,53,0.00,,---,0.00,VWS V14.01,2013-07-17 19:25:00,
2013-07-17 14:30:00,88.4,70.2,30.06,WSW,241,3.0,3.0,55,0.00,,---,0.00,VWS V14.01,2013-07-17 19:30:00,
2013-07-17 14:35:00,89.1,70.3,30.06,West,277,2.0,10.0,54,0.00,,---,0.00,VWS V14.01,2013-07-17 19:35:00,
2013-07-17 14:40:00,89.0,69.7,30.06,West,263,3.0,10.0,53,0.00,,---,0.00,VWS V14.01,2013-07-17 19:40:00,
2013-07-17 14:45:00,88.8,70.6,30.05,WSW,256,4.0,10.0,55,0.00,,---,0.00,VWS V14.01,2013-07-17 19:45:00,
2013-07-17 14:50:00,87.7,69.5,30.05,WNW,291,4.0,10.0,55,0.00,,---,0.00,VWS V14.01,2013-07-17 19:50:00,
2013-07-17 14:56:00,86.8,69.8,30.05,SW,233,2.0,10.0,57,0.00,,---,0.00,VWS V14.01,2013-07-17 19:56:00,
2013-07-17 15:01:00,87.3,69.7,30.05,West,274,2.0,5.0,56,0.00,,---,0.00,VWS V14.01,2013-07-17 20:01:00,
2013-07-17 15:06:00,88.1,69.4,30.05,SW,232,3.0,7.0,54,0.00,,---,0.00,VWS V14.01,2013-07-17 20:06:00,
2013-07-17 15:11:00,88.4,69.1,30.05,West,277,3.0,7.0,53,0.00,,---,0.00,VWS V14.01,2013-07-17 20:11:00,
2013-07-17 15:16:00,87.8,69.1,30.04,WNW,300,11.0,11.0,54,0.00,,---,0.00,VWS V14.01,2013-07-17 20:16:00,
2013-07-17 15:21:00,86.8,69.2,30.04,West,260,2.0,11.0,56,0.00,,---,0.00,VWS V14.01,2013-07-17 20:21:00,
2013-07-17 15:26:00,86.3,68.8,30.04,West,260,2.0,11.0,56,0.00,,---,0.00,VWS V14.01,2013-07-17 20:26:00,
2013-07-17 15:31:00,86.6,70.1,30.04,WNW,298,3.0,7.0,58,0.00,,---,0.00,VWS V14.01,2013-07-17 20:31:00,
2013-07-17 15:36:00,87.5,69.9,30.04,WNW,283,4.0,11.0,56,0.00,,---,0.00,VWS V14.01,2013-07-17 20:36:00,
2013-07-17 15:41:00,88.6,70.4,30.04,WSW,249,1.0,11.0,55,0.00,,---,0.00,VWS V14.01,2013-07-17 20:41:00,
2013-07-17 15:46:00,89.0,70.2,30.03,West,272,5.0,11.0,54,0.00,,---,0.00,VWS V14.01,2013-07-17 20:46:00,
2013-07-17 15:51:00,88.9,70.1,30.03,West,272,2.0,11.0,54,0.00,,---,0.00,VWS V14.01,2013-07-17 20:51:00,
2013-07-17 15:56:00,88.7,69.9,30.03,West,259,2.0,11.0,54,0.00,,---,0.00,VWS V14.01,2013-07-17 20:56:00,
2013-07-17 16:01:00,88.7,70.5,30.03,WSW,256,5.0,6.0,55,0.00,,---,0.00,VWS V14.01,2013-07-17 21:01:00,
2013-07-17 16:07:00,88.6,70.4,30.03,WNW,288,2.0,11.0,55,0.00,,---,0.00,VWS V14.01,2013-07-17 21:07:00,
2013-07-17 16:12:00,88.7,70.5,30.03,WSW,256,3.0,11.0,55,0.00,,---,0.00,VWS V14.01,2013-07-17 21:12:00,
2013-07-17 16:17:00,89.0,70.2,30.03,West,280,7.0,11.0,54,0.00,,---,0.00,VWS V14.01,2013-07-17 21:17:00,
2013-07-17 16:22:00,88.8,70.0,30.03,West,259,3.0,11.0,54,0.00,,---,0.00,VWS V14.01,2013-07-17 21:22:00,
2013-07-17 16:27:00,88.7,69.4,30.03,West,275,3.0,11.0,53,0.00,,---,0.00,VWS V14.01,2013-07-17 21:27:00,
2013-07-17 16:32:00,88.6,69.8,30.03,West,272,2.0,4.0,54,0.00,,---,0.00,VWS V14.01,2013-07-17 21:32:00,
2013-07-17 16:37:00,88.9,69.6,30.03,West,271,7.0,10.0,53,0.00,,---,0.00,VWS V14.01,2013-07-17 21:37:00,
2013-07-17 16:42:00,88.8,70.6,30.03,West,277,3.0,11.0,55,0.00,,---,0.00,VWS V14.01,2013-07-17 21:42:00,
2013-07-17 16:47:00,88.2,69.5,30.03,West,277,5.0,11.0,54,0.00,,---,0.00,VWS V14.01,2013-07-17 21:47:00,
2013-07-17 16:52:00,87.2,69.1,30.03,West,265,3.0,11.0,55,0.00,,---,0.00,VWS V14.01,2013-07-17 21:52:00,
2013-07-17 16:57:00,87.3,70.2,30.03,WNW,286,4.0,11.0,57,0.00,,---,0.00,VWS V14.01,2013-07-17 21:57:00,
2013-07-17 17:02:00,87.8,70.2,30.02,WNW,293,6.0,6.0,56,0.00,,---,0.00,VWS V14.01,2013-07-17 22:02:00,
2013-07-17 17:07:00,88.1,71.0,30.02,West,264,6.0,7.0,57,0.00,,---,0.00,VWS V14.01,2013-07-17 22:07:00,
2013-07-17 17:12:00,88.3,70.1,30.02,WSW,249,4.0,10.0,55,0.00,,---,0.00,VWS V14.01,2013-07-17 22:12:00,
2013-07-17 17:18:00,88.6,70.4,30.02,SW,224,3.0,10.0,55,0.00,,---,0.00,VWS V14.01,2013-07-17 22:18:00,
2013-07-17 17:23:00,88.1,69.9,30.02,SW,236,1.0,10.0,55,0.00,,---,0.00,VWS V14.01,2013-07-17 22:23:00,
2013-07-17 17:28:00,87.6,70.0,30.02,WNW,284,2.0,10.0,56,0.00,,---,0.00,VWS V14.01,2013-07-17 22:28:00,
2013-07-17 17:33:00,88.1,71.0,30.02,West,281,5.0,5.0,57,0.00,,---,0.00,VWS V14.01,2013-07-17 22:33:00,
2013-07-17 17:38:00,87.7,70.1,30.02,WSW,256,3.0,9.0,56,0.00,,---,0.00,VWS V14.01,2013-07-17 22:38:00,
2013-07-17 17:43:00,87.2,70.1,30.02,West,265,2.0,9.0,57,0.00,,---,0.00,VWS V14.01,2013-07-17 22:43:00,
2013-07-17 17:48:00,87.2,70.1,30.01,WSW,253,3.0,9.0,57,0.00,,---,0.00,VWS V14.01,2013-07-17 22:48:00,
2013-07-17 17:53:00,87.4,70.3,30.01,WSW,254,3.0,9.0,57,0.00,,---,0.00,VWS V14.01,2013-07-17 22:53:00,
2013-07-17 17:58:00,86.9,69.3,30.01,WNW,291,4.0,9.0,56,0.00,,---,0.00,VWS V14.01,2013-07-17 22:58:00,
2013-07-17 18:03:00,86.7,69.7,30.01,WNW,286,6.0,9.0,57,0.00,,---,0.00,VWS V14.01,2013-07-17 23:03:00,
2013-07-17 18:08:00,86.7,70.2,30.01,WSW,249,3.0,9.0,58,0.00,,---,0.00,VWS V14.01,2013-07-17 23:08:00,
2013-07-17 18:13:00,86.7,70.2,30.01,WSW,250,1.0,9.0,58,0.00,,---,0.00,VWS V14.01,2013-07-17 23:13:00,
2013-07-17 18:18:00,86.6,70.6,30.01,West,267,2.0,9.0,59,0.00,,---,0.00,VWS V14.01,2013-07-17 23:18:00,
2013-07-17 18:23:00,86.5,70.0,30.01,West,268,2.0,9.0,58,0.00,,---,0.00,VWS V14.01,2013-07-17 23:23:00,
2013-07-17 18:28:00,86.7,70.2,30.01,WNW,286,2.0,9.0,58,0.00,,---,0.00,VWS V14.01,2013-07-17 23:28:00,
2013-07-17 18:33:00,86.5,70.5,30.00,West,260,5.0,5.0,59,0.00,,---,0.00,VWS V14.01,2013-07-17 23:33:00,
2013-07-17 18:38:00,86.2,70.2,30.00,SW,219,3.0,7.0,59,0.00,,---,0.00,VWS V14.01,2013-07-17 23:38:00,
2013-07-17 18:43:00,86.1,70.6,30.00,WSW,253,1.0,7.0,60,0.00,,---,0.00,VWS V14.01,2013-07-17 23:43:00,
2013-07-17 18:49:00,86.0,70.5,30.00,West,263,2.0,7.0,60,0.00,,---,0.00,VWS V14.01,2013-07-17 23:49:00,
2013-07-17 18:54:00,85.8,70.8,30.00,West,259,1.0,8.0,61,0.00,,---,0.00,VWS V14.01,2013-07-17 23:54:00,
2013-07-17 18:59:00,85.7,70.7,30.00,West,267,3.0,8.0,61,0.00,,---,0.00,VWS V14.01,2013-07-17 23:59:00,
2013-07-17 19:04:00,85.5,70.5,30.00,West,275,2.0,4.0,61,0.00,,---,0.00,VWS V14.01,2013-07-18 00:04:00,
2013-07-17 19:09:00,85.3,70.8,30.00,West,273,1.0,6.0,62,0.00,,---,0.00,VWS V14.01,2013-07-18 00:09:00,
2013-07-17 19:14:00,85.1,70.6,30.00,West,270,1.0,6.0,62,0.00,,---,0.00,VWS V14.01,2013-07-18 00:14:00,
2013-07-17 19:19:00,85.2,71.2,30.00,West,277,1.0,6.0,63,0.00,,---,0.00,VWS V14.01,2013-07-18 00:19:00,
2013-07-17 19:24:00,85.1,71.1,30.00,West,265,2.0,6.0,63,0.00,,---,0.00,VWS V14.01,2013-07-18 00:24:00,
2013-07-17 19:29:00,84.8,70.8,30.00,West,279,2.0,6.0,63,0.00,,---,0.00,VWS V14.01,2013-07-18 00:29:00,
2013-07-17 19:34:00,84.9,70.9,30.00,WSW,241,2.0,4.0,63,0.00,,---,0.00,VWS V14.01,2013-07-18 00:34:00,
2013-07-17 19:39:00,84.9,70.9,30.00,West,279,2.0,4.0,63,0.00,,---,0.00,VWS V14.01,2013-07-18 00:39:00,
2013-07-17 19:44:00,84.6,70.6,30.00,WSW,246,1.0,4.0,63,0.00,,---,0.00,VWS V14.01,2013-07-18 00:44:00,
2013-07-17 19:49:00,84.2,70.7,30.00,West,277,1.0,5.0,64,0.00,,---,0.00,VWS V14.01,2013-07-18 00:49:00,
2013-07-17 19:54:00,83.7,70.7,30.00,West,263,0.0,5.0,65,0.00,,---,0.00,VWS V14.01,2013-07-18 00:54:00,
2013-07-17 19:59:00,83.3,70.3,30.00,WSW,252,1.0,5.0,65,0.00,,---,0.00,VWS V14.01,2013-07-18 00:59:00,
2013-07-17 20:05:00,83.1,70.6,30.00,WNW,298,2.0,3.0,66,0.00,,---,0.00,VWS V14.01,2013-07-18 01:05:00,
2013-07-17 20:10:00,82.8,70.3,30.00,West,278,2.0,5.0,66,0.00,,---,0.00,VWS V14.01,2013-07-18 01:10:00,
2013-07-17 20:15:00,82.5,70.4,30.00,West,264,0.0,5.0,67,0.00,,---,0.00,VWS V14.01,2013-07-18 01:15:00,
2013-07-17 20:20:00,82.2,70.6,30.00,West,273,0.0,5.0,68,0.00,,---,0.00,VWS V14.01,2013-07-18 01:20:00,
2013-07-17 20:25:00,81.8,70.2,30.00,West,272,0.0,5.0,68,0.00,,---,0.00,VWS V14.01,2013-07-18 01:25:00,
2013-07-17 20:30:00,81.6,70.4,30.00,West,272,0.0,5.0,69,0.00,,---,0.00,VWS V14.01,2013-07-18 01:30:00,
2013-07-17 20:35:00,81.3,70.2,30.00,West,272,0.0,0.0,69,0.00,,---,0.00,VWS V14.01,2013-07-18 01:35:00,
2013-07-17 20:40:00,81.1,70.4,30.00,West,275,0.0,0.0,70,0.00,,---,0.00,VWS V14.01,2013-07-18 01:40:00,
2013-07-17 20:45:00,80.8,70.1,30.01,West,275,0.0,0.0,70,0.00,,---,0.00,VWS V14.01,2013-07-18 01:45:00,
2013-07-17 20:50:00,80.6,70.3,30.01,West,269,0.0,0.0,71,0.00,,---,0.00,VWS V14.01,2013-07-18 01:50:00,
2013-07-17 20:55:00,80.4,70.1,30.01,West,269,0.0,0.0,71,0.00,,---,0.00,VWS V14.01,2013-07-18 01:55:00,
2013-07-17 21:00:00,80.2,70.4,30.00,West,269,0.0,0.0,72,0.00,,---,0.00,VWS V14.01,2013-07-18 02:00:00,
2013-07-17 21:05:00,79.9,70.1,30.00,West,269,0.0,0.0,72,0.00,,---,0.00,VWS V14.01,2013-07-18 02:05:00,
2013-07-17 21:10:00,79.7,69.9,30.00,West,269,0.0,0.0,72,0.00,,---,0.00,VWS V14.01,2013-07-18 02:10:00,
2013-07-17 21:15:00,79.7,70.3,30.00,West,269,0.0,0.0,73,0.00,,---,0.00,VWS V14.01,2013-07-18 02:15:00,
2013-07-17 21:20:00,79.4,70.0,30.00,West,269,0.0,0.0,73,0.00,,---,0.00,VWS V14.01,2013-07-18 02:20:00,
2013-07-17 21:25:00,79.2,70.2,30.00,West,269,0.0,0.0,74,0.00,,---,0.00,VWS V14.01,2013-07-18 02:25:00,
2013-07-17 21:30:00,78.9,69.9,30.00,West,269,0.0,0.0,74,0.00,,---,0.00,VWS V14.01,2013-07-18 02:30:00,
2013-07-17 21:35:00,78.6,70.0,30.00,West,269,0.0,0.0,75,0.00,,---,0.00,VWS V14.01,2013-07-18 02:35:00,
2013-07-17 21:41:00,78.4,70.2,30.00,West,269,0.0,0.0,76,0.00,,---,0.00,VWS V14.01,2013-07-18 02:41:00,
2013-07-17 21:46:00,78.2,70.4,30.00,West,269,0.0,0.0,77,0.00,,---,0.00,VWS V14.01,2013-07-18 02:46:00,
2013-07-17 21:51:00,78.0,70.2,30.00,West,269,0.0,0.0,77,0.00,,---,0.00,VWS V14.01,2013-07-18 02:51:00,
2013-07-17 21:56:00,77.8,70.4,30.00,WSW,240,0.0,0.0,78,0.00,,---,0.00,VWS V14.01,2013-07-18 02:56:00,
2013-07-17 22:01:00,77.6,70.6,30.00,WSW,240,0.0,0.0,79,0.00,,---,0.00,VWS V14.01,2013-07-18 03:01:00,
2013-07-17 22:06:00,77.4,70.4,30.00,WSW,240,0.0,0.0,79,0.00,,---,0.00,VWS V14.01,2013-07-18 03:06:00,
2013-07-17 22:11:00,77.2,70.2,30.00,WSW,240,0.0,0.0,79,0.00,,---,0.00,VWS V14.01,2013-07-18 03:11:00,
2013-07-17 22:16:00,77.0,70.4,30.00,WSW,240,0.0,0.0,80,0.00,,---,0.00,VWS V14.01,2013-07-18 03:16:00,
2013-07-17 22:21:00,76.8,70.2,30.00,WSW,240,0.0,0.0,80,0.00,,---,0.00,VWS V14.01,2013-07-18 03:21:00,
2013-07-17 22:26:00,76.7,70.1,30.00,WSW,240,0.0,0.0,80,0.00,,---,0.00,VWS V14.01,2013-07-18 03:26:00,
2013-07-17 22:31:00,76.5,69.9,30.00,WSW,240,0.0,0.0,80,0.00,,---,0.00,VWS V14.01,2013-07-18 03:31:00,
2013-07-17 22:36:00,76.4,70.1,30.00,WSW,240,0.0,0.0,81,0.00,,---,0.00,VWS V14.01,2013-07-18 03:36:00,
2013-07-17 22:41:00,76.3,70.1,30.00,WSW,240,0.0,0.0,81,0.00,,---,0.00,VWS V14.01,2013-07-18 03:41:00,
2013-07-17 22:46:00,76.2,69.9,30.00,WSW,240,0.0,0.0,81,0.00,,---,0.00,VWS V14.01,2013-07-18 03:46:00,
2013-07-17 22:51:00,76.2,69.9,30.00,WSW,240,0.0,0.0,81,0.00,,---,0.00,VWS V14.01,2013-07-18 03:51:00,
2013-07-17 22:57:00,76.1,70.2,30.00,WSW,240,0.0,0.0,82,0.00,,---,0.00,VWS V14.01,2013-07-18 03:57:00,
2013-07-17 23:01:00,75.9,70.0,30.00,WSW,240,0.0,0.0,82,0.00,,---,0.00,VWS V14.01,2013-07-18 04:01:00,
2013-07-17 23:02:00,75.9,70.0,30.00,WSW,240,0.0,0.0,82,0.00,,---,0.00,VWS V14.01,2013-07-18 04:02:00,
2013-07-17 23:03:00,75.9,70.0,30.00,WSW,240,0.0,0.0,82,0.00,,---,0.00,VWS V14.01,2013-07-18 04:03:00,
2013-07-17 23:05:00,75.8,69.9,30.00,WSW,240,0.0,0.0,82,0.00,,---,0.00,VWS V14.01,2013-07-18 04:05:00,
2013-07-17 23:10:00,75.7,69.8,30.00,WSW,239,0.0,0.0,82,0.00,,---,0.00,VWS V14.01,2013-07-18 04:10:00,
2013-07-17 23:15:00,75.7,69.8,30.00,WSW,240,0.0,0.0,82,0.00,,---,0.00,VWS V14.01,2013-07-18 04:15:00,
2013-07-17 23:20:00,75.5,70.0,30.00,WSW,240,0.0,0.0,83,0.00,,---,0.00,VWS V14.01,2013-07-18 04:20:00,
2013-07-17 23:25:00,75.6,70.1,30.00,WSW,240,0.0,0.0,83,0.00,,---,0.00,VWS V14.01,2013-07-18 04:25:00,
2013-07-17 23:30:00,75.7,69.8,29.99,WSW,240,0.0,0.0,82,0.00,,---,0.00,VWS V14.01,2013-07-18 04:30:00,
2013-07-17 23:35:00,75.7,69.8,29.99,WSW,240,0.0,0.0,82,0.00,,---,0.00,VWS V14.01,2013-07-18 04:35:00,
2013-07-17 23:40:00,75.7,69.8,29.99,West,271,0.0,0.0,82,0.00,,---,0.00,VWS V14.01,2013-07-18 04:40:00,
2013-07-17 23:46:00,75.7,69.8,29.99,West,271,0.0,0.0,82,0.00,,---,0.00,VWS V14.01,2013-07-18 04:46:00,
2013-07-17 23:51:00,75.6,69.7,29.99,West,271,0.0,0.0,82,0.00,,---,0.00,VWS V14.01,2013-07-18 04:51:00,
2013-07-17 23:56:00,75.5,69.6,29.99,West,272,0.0,0.0,82,0.00,,---,0.00,VWS V14.01,2013-07-18 04:56:00,